createdAt,value
2019-04-30T00:02:05.573Z,97386.14
2019-04-30T00:05:15.171Z,97380.52
2019-04-30T00:08:20.843Z,97384.67
2019-04-30T00:11:27.174Z,97388.86
2019-04-30T00:14:38.607Z,97376.86
2019-04-30T00:17:42.083Z,97383.55
2019-04-30T00:20:48.457Z,97389.51
2019-04-30T00:23:56.153Z,97385.25
2019-04-30T00:27:02.778Z,97381.27
2019-04-30T00:30:09.707Z,97384.09
2019-04-30T00:33:22.231Z,97381.69
2019-04-30T00:36:29.350Z,97371.50
2019-04-30T00:39:32.693Z,97372.47
2019-04-30T00:42:39.056Z,97366.63
2019-04-30T00:45:47.564Z,97357.27
2019-04-30T00:48:55.718Z,97356.77
2019-04-30T00:52:02.628Z,97360.58
2019-04-30T00:55:09.380Z,97363.77
2019-04-30T00:58:17.711Z,97364.69
2019-04-30T01:01:51.771Z,97368.22
2019-04-30T01:05:05.337Z,97366.98
2019-04-30T01:08:08.452Z,97372.80
2019-04-30T01:11:15.455Z,97364.17
2019-04-30T01:14:23.151Z,97362.80
2019-04-30T01:17:30.400Z,97364.25
2019-04-30T01:20:38.657Z,97365.35
2019-04-30T01:23:51.928Z,97363.46
2019-04-30T01:26:53.497Z,97361.23
2019-04-30T01:30:00.133Z,97359.36
2019-04-30T01:33:06.605Z,97357.65
2019-04-30T01:36:13.440Z,97352.23
2019-04-30T01:39:23.662Z,97345.06
2019-04-30T01:42:28.493Z,97340.80
2019-04-30T01:45:34.910Z,97348.70
2019-04-30T01:48:43.716Z,97348.43
2019-04-30T01:51:52.865Z,97347.92
2019-04-30T01:54:58.698Z,97352.84
2019-04-30T01:58:19.850Z,97351.14
2019-04-30T02:01:28.594Z,97354.56
2019-04-30T02:04:35.859Z,97364.65
2019-04-30T02:07:42.227Z,97349.72
2019-04-30T02:10:49.197Z,97354.58
2019-04-30T02:13:56.686Z,97356.98
2019-04-30T02:17:03.162Z,97356.71
2019-04-30T02:20:10.116Z,97354.16
2019-04-30T02:23:16.501Z,97355.16
2019-04-30T02:26:22.915Z,97355.70
2019-04-30T02:29:29.746Z,97351.08
2019-04-30T02:32:36.285Z,97356.19
2019-04-30T02:36:10.711Z,97357.00
2019-04-30T02:39:17.131Z,97365.48
2019-04-30T02:42:23.961Z,97361.73
2019-04-30T02:45:31.672Z,97363.19
2019-04-30T02:48:39.967Z,97354.81
2019-04-30T02:51:49.738Z,97350.82
2019-04-30T02:54:59.211Z,97354.09
2019-04-30T02:58:04.779Z,97352.45
2019-04-30T03:01:11.242Z,97355.05
2019-04-30T03:04:19.669Z,97359.81
2019-04-30T03:07:25.881Z,97361.92
2019-04-30T03:10:32.280Z,97363.97
2019-04-30T03:13:42.546Z,97375.63
2019-04-30T03:16:55.932Z,97374.10
2019-04-30T03:20:35.574Z,97376.50
2019-04-30T03:23:39.192Z,97378.23
2019-04-30T03:26:45.893Z,97383.52
2019-04-30T03:29:52.750Z,97386.11
2019-04-30T03:33:02.771Z,97389.53
2019-04-30T03:36:11.929Z,97396.28
2019-04-30T03:39:15.349Z,97398.55
2019-04-30T03:42:21.718Z,97397.12
2019-04-30T03:45:30.155Z,97406.03
2019-04-30T03:48:36.205Z,97393.34
2019-04-30T03:51:42.724Z,97395.50
2019-04-30T03:54:49.547Z,97400.27
2019-04-30T03:57:59.865Z,97401.46
2019-04-30T04:01:21.372Z,97399.87
2019-04-30T04:05:01.105Z,97407.12
2019-04-30T04:08:19.720Z,97408.00
2019-04-30T04:11:30.158Z,97412.08
2019-04-30T04:14:39.335Z,97410.89
2019-04-30T04:17:44.733Z,97413.92
2019-04-30T04:21:07.016Z,97415.19
2019-04-30T04:24:00.211Z,97413.07
2019-04-30T04:27:09.562Z,97412.95
2019-04-30T04:30:15.383Z,97411.34
2019-04-30T04:33:21.881Z,97412.47
2019-04-30T04:36:30.269Z,97410.16
2019-04-30T04:39:36.483Z,97411.83
2019-04-30T04:42:42.940Z,97413.70
2019-04-30T04:45:50.007Z,97420.86
2019-04-30T04:48:59.437Z,97419.24
2019-04-30T04:52:04.790Z,97421.44
2019-04-30T04:55:12.996Z,97428.50
2019-04-30T04:58:21.508Z,97429.08
2019-04-30T05:01:28.870Z,97428.09
2019-04-30T05:04:35.572Z,97429.81
2019-04-30T05:07:41.957Z,97427.28
2019-04-30T05:10:49.492Z,97424.17
2019-04-30T05:13:56.067Z,97422.41
2019-04-30T05:17:02.454Z,97427.02
2019-04-30T05:20:11.154Z,97428.98
2019-04-30T05:23:19.557Z,97432.04
2019-04-30T05:26:25.917Z,97437.27
2019-04-30T05:29:32.360Z,97440.79
2019-04-30T05:32:39.173Z,97443.39
2019-04-30T05:35:46.887Z,97447.48
2019-04-30T05:38:53.280Z,97447.50
2019-04-30T05:41:59.688Z,97445.98
2019-04-30T05:45:09.325Z,97444.16
2019-04-30T05:48:16.277Z,97440.63
2019-04-30T05:51:22.674Z,97440.55
2019-04-30T05:54:29.280Z,97439.28
2019-04-30T05:57:35.779Z,97436.28
2019-04-30T06:00:42.171Z,97440.87
2019-04-30T06:03:48.577Z,97447.23
2019-04-30T06:06:55.218Z,97441.48
2019-04-30T06:10:10.274Z,97442.92
2019-04-30T06:13:20.706Z,97436.19
2019-04-30T06:16:29.692Z,97439.67
2019-04-30T06:19:36.199Z,97436.33
2019-04-30T06:22:42.739Z,97436.30
2019-04-30T06:25:59.917Z,97433.14
2019-04-30T06:29:00.055Z,97436.80
2019-04-30T06:32:08.530Z,97436.98
2019-04-30T06:35:15.155Z,97433.59
2019-04-30T06:38:21.704Z,97440.77
2019-04-30T06:41:29.576Z,97441.67
2019-04-30T06:44:39.322Z,97447.38
2019-04-30T06:47:46.121Z,97445.77
2019-04-30T06:50:52.508Z,97440.33
2019-04-30T06:53:58.919Z,97440.36
2019-04-30T06:57:05.486Z,97441.85
2019-04-30T07:00:13.186Z,97441.64
2019-04-30T07:03:20.004Z,97447.91
2019-04-30T07:06:29.669Z,97456.17
2019-04-30T07:09:54.581Z,97456.28
2019-04-30T07:12:59.168Z,97448.70
2019-04-30T07:16:05.615Z,97453.25
2019-04-30T07:19:12.151Z,97446.63
2019-04-30T07:22:20.710Z,97450.81
2019-04-30T07:25:26.662Z,97454.54
2019-04-30T07:28:43.047Z,97453.09
2019-04-30T07:31:41.417Z,97456.57
2019-04-30T07:34:49.551Z,97454.16
2019-04-30T07:38:00.665Z,97460.50
2019-04-30T07:41:04.356Z,97461.22
2019-04-30T07:44:29.459Z,97464.98
2019-04-30T07:47:20.179Z,97468.80
2019-04-30T07:50:27.176Z,97460.21
2019-04-30T07:53:34.494Z,97466.12
2019-04-30T07:56:41.898Z,97463.27
2019-04-30T07:59:49.943Z,97476.80
2019-04-30T08:03:06.348Z,97472.97
2019-04-30T08:06:23.096Z,97474.89
2019-04-30T08:09:38.635Z,97481.94
2019-04-30T08:12:42.038Z,97485.20
2019-04-30T08:15:46.155Z,97491.20
2019-04-30T08:18:53.529Z,97495.89
2019-04-30T08:21:59.934Z,97491.45
2019-04-30T08:25:07.023Z,97490.41
2019-04-30T08:28:13.491Z,97495.74
2019-04-30T08:31:19.940Z,97481.80
2019-04-30T08:34:26.392Z,97491.74
2019-04-30T08:37:32.805Z,97480.33
2019-04-30T08:40:47.239Z,97487.13
2019-04-30T08:43:49.457Z,97483.03
2019-04-30T08:46:55.508Z,97480.72
2019-04-30T08:50:02.932Z,97483.28
2019-04-30T08:53:10.931Z,97488.08
2019-04-30T08:56:21.665Z,97488.11
2019-04-30T08:59:26.274Z,97479.66
2019-04-30T09:02:32.958Z,97482.11
2019-04-30T09:06:01.410Z,97484.67
2019-04-30T09:09:13.098Z,97484.44
2019-04-30T09:12:19.755Z,97481.18
2019-04-30T09:15:26.273Z,97484.45
2019-04-30T09:18:32.693Z,97478.82
2019-04-30T09:21:40.245Z,97479.81
2019-04-30T09:24:46.764Z,97482.50
2019-04-30T09:27:53.135Z,97479.00
2019-04-30T09:30:59.985Z,97481.05
2019-04-30T09:34:15.297Z,97487.78
2019-04-30T09:37:14.630Z,97481.30
2019-04-30T09:40:21.349Z,97480.34
2019-04-30T09:43:28.625Z,97476.88
2019-04-30T09:46:35.634Z,97473.62
2019-04-30T09:49:42.123Z,97480.41
2019-04-30T09:52:49.698Z,97491.02
2019-04-30T09:55:56.474Z,97480.43
2019-04-30T09:59:03.045Z,97479.80
2019-04-30T10:02:10.747Z,97480.55
2019-04-30T10:05:19.397Z,97476.42
2019-04-30T10:08:26.534Z,97473.72
2019-04-30T10:11:52.362Z,97471.40
2019-04-30T10:14:59.268Z,97472.23
2019-04-30T10:18:06.159Z,97473.31
2019-04-30T10:21:12.790Z,97467.94
2019-04-30T10:24:19.701Z,97472.89
2019-04-30T10:27:29.153Z,97468.78
2019-04-30T10:30:37.482Z,97466.81
2019-04-30T10:33:44.003Z,97466.80
2019-04-30T10:36:50.606Z,97466.14
2019-04-30T10:39:57.256Z,97470.11
2019-04-30T10:43:03.851Z,97466.50
2019-04-30T10:46:11.865Z,97465.63
2019-04-30T10:49:19.200Z,97469.48
2019-04-30T10:52:26.358Z,97472.89
2019-04-30T10:55:32.873Z,97460.32
2019-04-30T10:58:39.433Z,97472.73
2019-04-30T11:01:45.975Z,97464.64
2019-04-30T11:04:52.526Z,97471.27
2019-04-30T11:08:00.167Z,97467.08
2019-04-30T11:11:06.916Z,97476.89
2019-04-30T11:14:13.491Z,97465.52
2019-04-30T11:17:20.113Z,97456.00
2019-04-30T11:20:26.864Z,97467.47
2019-04-30T11:23:33.730Z,97459.41
2019-04-30T11:26:41.284Z,97455.68
2019-04-30T11:29:49.519Z,97449.72
2019-04-30T11:32:56.466Z,97450.84
2019-04-30T11:36:05.082Z,97445.14
2019-04-30T11:39:18.620Z,97450.77
2019-04-30T11:42:25.145Z,97451.20
2019-04-30T11:46:46.028Z,97442.22
2019-04-30T11:49:52.660Z,97446.67
2019-04-30T11:53:13.986Z,97446.38
2019-04-30T11:56:08.489Z,97443.66
2019-04-30T11:59:14.982Z,97441.16
2019-04-30T12:02:29.294Z,97441.14
2019-04-30T12:05:36.178Z,97440.22
2019-04-30T12:09:01.566Z,97440.88
2019-04-30T12:12:10.244Z,97431.77
2019-04-30T12:15:16.856Z,97426.09
2019-04-30T12:18:23.634Z,97428.95
2019-04-30T12:21:30.109Z,97424.72
2019-04-30T12:24:36.595Z,97430.23
2019-04-30T12:27:43.515Z,97415.93
2019-04-30T12:30:50.094Z,97421.81
2019-04-30T12:33:56.474Z,97416.05
2019-04-30T12:37:02.850Z,97415.52
2019-04-30T12:40:25.567Z,97411.30
2019-04-30T12:43:18.577Z,97413.44
2019-04-30T12:46:25.142Z,97411.28
2019-04-30T12:49:49.985Z,97405.36
2019-04-30T12:53:04.144Z,97404.69
2019-04-30T12:56:28.322Z,97410.48
2019-04-30T12:59:34.831Z,97417.64
2019-04-30T13:02:41.336Z,97413.16
2019-04-30T13:05:50.063Z,97412.17
2019-04-30T13:08:56.478Z,97412.33
2019-04-30T13:12:03.679Z,97413.91
2019-04-30T13:15:11.409Z,97412.76
2019-04-30T13:18:19.470Z,97403.25
2019-04-30T13:21:26.159Z,97393.81
2019-04-30T13:24:32.705Z,97401.13
2019-04-30T13:27:42.467Z,97398.47
2019-04-30T13:30:49.447Z,97399.08
2019-04-30T13:34:01.502Z,97395.09
2019-04-30T13:37:09.283Z,97393.43
2019-04-30T13:40:33.720Z,97387.85
2019-04-30T13:44:00.985Z,97376.51
2019-04-30T13:47:10.670Z,97379.23
2019-04-30T13:50:15.944Z,97383.54
2019-04-30T13:53:22.310Z,97392.91
2019-04-30T13:56:29.113Z,97381.02
2019-04-30T13:59:35.467Z,97382.13
2019-04-30T14:02:46.051Z,97381.91
2019-04-30T14:05:52.612Z,97381.44
2019-04-30T14:09:00.719Z,97384.39
2019-04-30T14:12:08.911Z,97375.62
2019-04-30T14:15:16.439Z,97377.69
2019-04-30T14:18:30.839Z,97374.39
2019-04-30T14:21:35.246Z,97379.34
2019-04-30T14:24:39.403Z,97371.27
2019-04-30T14:27:52.287Z,97368.85
2019-04-30T14:30:54.093Z,97366.96
2019-04-30T14:34:00.663Z,97367.16
2019-04-30T14:37:07.206Z,97368.19
2019-04-30T14:40:15.413Z,97368.11
2019-04-30T14:43:29.943Z,97361.83
2019-04-30T14:47:14.321Z,97369.41
2019-04-30T14:50:21.991Z,97355.84
2019-04-30T14:53:49.916Z,97360.86
2019-04-30T14:57:06.468Z,97358.87
2019-04-30T15:00:31.983Z,97357.05
2019-04-30T15:03:39.493Z,97361.06
2019-04-30T15:06:46.331Z,97356.64
2019-04-30T15:09:52.748Z,97359.38
2019-04-30T15:13:00.188Z,97360.05
2019-04-30T15:16:07.255Z,97354.75
2019-04-30T15:19:13.615Z,97357.94
2019-04-30T15:22:20.085Z,97351.66
2019-04-30T15:25:34.319Z,97347.86
2019-04-30T15:28:34.581Z,97346.14
2019-04-30T15:31:42.598Z,97349.09
2019-04-30T15:34:49.261Z,97344.85
2019-04-30T15:37:59.027Z,97345.22
2019-04-30T15:41:06.076Z,97340.98
2019-04-30T15:44:12.873Z,97342.25
2019-04-30T15:47:19.813Z,97345.05
2019-04-30T15:50:26.426Z,97343.70
2019-04-30T15:53:33.019Z,97336.64
2019-04-30T15:56:40.860Z,97339.95
2019-04-30T15:59:47.553Z,97340.75
2019-04-30T16:03:00.269Z,97333.91
2019-04-30T16:06:08.365Z,97337.85
2019-04-30T16:09:22.715Z,97340.61
2019-04-30T16:12:38.515Z,97334.54
2019-04-30T16:15:46.258Z,97334.29
2019-04-30T16:18:53.088Z,97336.81
2019-04-30T16:22:02.520Z,97336.06
2019-04-30T16:25:09.063Z,97326.33
2019-04-30T16:28:15.708Z,97329.38
2019-04-30T16:31:22.182Z,97335.98
2019-04-30T16:34:30.454Z,97335.07
2019-04-30T16:37:38.772Z,97323.53
2019-04-30T16:40:45.280Z,97323.39
2019-04-30T16:43:51.781Z,97323.38
2019-04-30T16:46:59.644Z,97321.61
2019-04-30T16:50:08.836Z,97317.92
2019-04-30T16:53:15.166Z,97320.88
2019-04-30T16:56:21.627Z,97310.13
2019-04-30T16:59:34.636Z,97317.78
2019-04-30T17:02:43.561Z,97316.71
2019-04-30T17:05:55.970Z,97308.30
2019-04-30T17:09:21.067Z,97312.59
2019-04-30T17:12:35.115Z,97312.25
2019-04-30T17:15:41.601Z,97310.81
2019-04-30T17:18:49.908Z,97310.95
2019-04-30T17:21:57.511Z,97305.88
2019-04-30T17:25:04.112Z,97305.44
2019-04-30T17:28:10.491Z,97304.86
2019-04-30T17:31:16.972Z,97299.48
2019-04-30T17:34:23.421Z,97294.28
2019-04-30T17:37:31.518Z,97298.16
2019-04-30T17:40:38.958Z,97302.52
2019-04-30T17:43:45.475Z,97293.58
2019-04-30T17:46:51.939Z,97296.46
2019-04-30T17:49:58.901Z,97292.32
2019-04-30T17:53:05.561Z,97288.53
2019-04-30T17:56:11.953Z,97290.50
2019-04-30T17:59:18.425Z,97292.44
2019-04-30T18:02:26.902Z,97298.78
2019-04-30T18:05:33.783Z,97297.88
2019-04-30T18:08:40.326Z,97300.36
2019-04-30T18:11:46.773Z,97298.97
2019-04-30T18:14:53.612Z,97295.73
2019-04-30T18:18:17.488Z,97299.22
2019-04-30T18:21:31.642Z,97299.38
2019-04-30T18:24:45.638Z,97305.35
2019-04-30T18:27:55.539Z,97302.05
2019-04-30T18:31:02.138Z,97310.70
2019-04-30T18:34:09.448Z,97314.44
2019-04-30T18:37:16.091Z,97315.38
2019-04-30T18:40:22.520Z,97312.18
2019-04-30T18:43:29.022Z,97316.23
2019-04-30T18:46:35.576Z,97315.05
2019-04-30T18:49:42.187Z,97313.69
2019-04-30T18:52:50.724Z,97310.00
2019-04-30T18:55:59.049Z,97321.06
2019-04-30T18:59:05.481Z,97312.53
2019-04-30T19:02:13.751Z,97313.78
2019-04-30T19:05:26.688Z,97306.83
2019-04-30T19:08:39.503Z,97313.30
2019-04-30T19:11:52.594Z,97310.06
2019-04-30T19:15:11.969Z,97315.68
2019-04-30T19:18:28.376Z,97323.22
2019-04-30T19:21:35.586Z,97321.38
2019-04-30T19:24:53.413Z,97322.81
2019-04-30T19:27:50.337Z,97327.13
2019-04-30T19:30:58.855Z,97327.05
2019-04-30T19:34:05.263Z,97326.66
2019-04-30T19:37:12.388Z,97330.42
2019-04-30T19:40:19.108Z,97322.83
2019-04-30T19:43:25.542Z,97325.24
2019-04-30T19:46:31.924Z,97330.27
2019-04-30T19:49:40.418Z,97335.80
2019-04-30T19:52:46.535Z,97326.69
2019-04-30T19:55:56.086Z,97324.73
2019-04-30T19:59:05.496Z,97328.97
2019-04-30T20:02:10.814Z,97317.95
2019-04-30T20:05:19.273Z,97327.00
2019-04-30T20:08:25.569Z,97327.39
2019-04-30T20:11:31.947Z,97329.22
2019-04-30T20:14:39.105Z,97318.37
2019-04-30T20:17:45.674Z,97319.16
2019-04-30T20:20:54.105Z,97316.13
2019-04-30T20:24:00.590Z,97313.32
2019-04-30T20:27:09.944Z,97319.17
2019-04-30T20:30:16.040Z,97318.82
2019-04-30T20:33:22.961Z,97316.48
2019-04-30T20:36:29.355Z,97319.84
2019-04-30T20:39:49.451Z,97320.83
2019-04-30T20:42:55.890Z,97320.08
2019-04-30T20:46:02.307Z,97323.55
2019-04-30T20:49:09.233Z,97318.17
2019-04-30T20:52:15.691Z,97315.80
2019-04-30T20:55:22.051Z,97321.67
2019-04-30T20:58:28.522Z,97322.87
2019-04-30T21:01:35.446Z,97322.92
2019-04-30T21:04:42.081Z,97320.89
2019-04-30T21:07:48.819Z,97315.39
2019-04-30T21:10:55.177Z,97315.54
2019-04-30T21:14:01.867Z,97324.53
2019-04-30T21:17:08.508Z,97318.09
2019-04-30T21:20:15.355Z,97311.94
2019-04-30T21:23:21.769Z,97315.70
2019-04-30T21:26:28.341Z,97312.22
2019-04-30T21:29:34.724Z,97311.52
2019-04-30T21:32:56.566Z,97318.50
2019-04-30T21:36:08.975Z,97313.12
2019-04-30T21:39:15.533Z,97315.19
2019-04-30T21:42:22.144Z,97308.44
2019-04-30T21:45:29.187Z,97310.41
2019-04-30T21:48:38.468Z,97310.35
2019-04-30T21:51:44.952Z,97305.76
2019-04-30T21:54:51.465Z,97303.11
2019-04-30T21:57:59.440Z,97303.19
2019-04-30T22:01:20.225Z,97303.33
2019-04-30T22:04:27.870Z,97308.69
2019-04-30T22:07:34.442Z,97302.73
2019-04-30T22:10:40.850Z,97318.60
2019-04-30T22:13:49.062Z,97309.98
2019-04-30T22:16:55.658Z,97299.76
2019-04-30T22:20:02.042Z,97298.48
2019-04-30T22:23:08.522Z,97302.11
2019-04-30T22:26:14.987Z,97300.23
2019-04-30T22:29:21.622Z,97299.94
2019-04-30T22:32:28.100Z,97296.63
2019-04-30T22:35:58.797Z,97301.19
2019-04-30T22:39:35.099Z,97300.95
2019-04-30T22:42:41.888Z,97294.91
2019-04-30T22:45:53.482Z,97299.97
2019-04-30T22:49:00.309Z,97300.25
2019-04-30T22:52:06.708Z,97294.69
2019-04-30T22:55:13.262Z,97293.28
2019-04-30T22:58:19.639Z,97294.38
2019-04-30T23:01:55.282Z,97294.78
2019-04-30T23:05:02.371Z,97292.40
2019-04-30T23:08:08.753Z,97288.61
2019-04-30T23:11:15.219Z,97286.07
2019-04-30T23:14:21.752Z,97285.55
2019-04-30T23:17:28.245Z,97279.77
2019-04-30T23:20:34.630Z,97286.34
2019-04-30T23:23:41.373Z,97285.83
2019-04-30T23:26:47.765Z,97281.34
2019-04-30T23:30:03.133Z,97276.84
2019-04-30T23:33:02.392Z,97280.45
2019-04-30T23:36:08.795Z,97270.88
2019-04-30T23:39:15.376Z,97270.05
2019-04-30T23:42:21.842Z,97272.55
2019-04-30T23:45:28.292Z,97271.69
2019-04-30T23:48:34.713Z,97264.79
2019-04-30T23:51:41.112Z,97263.68
2019-04-30T23:54:47.575Z,97258.34
2019-04-30T23:57:54.041Z,97257.91
